Time;durP1;ratioP1;P1;durP2;ratioP2;P2;SDS_P1;SDS_P2;PMS_P1;PMS_P2;Temp;Humidity;BMP_temperature;BMP_pressure;BME280_temperature;BME280_humidity;BME280_pressure;Samples;Min_cycle;Max_cycle;Signal;HPM_P1;HPM_P2
2023/06/27 00:00:52;;;;;;;6.35;2.75;;;;;;;;;;5000015;28;20049;-84
2023/06/27 00:03:19;;;;;;;12.38;2.58;;;;;;;;;;5037704;28;20049;-83
2023/06/27 00:05:46;;;;;;;8.90;2.90;;;;;;;;;;5021375;28;20064;-83
2023/06/27 00:08:13;;;;;;;11.57;3.00;;;;;;;;;;5039396;28;20041;-82
2023/06/27 00:10:39;;;;;;;7.63;3.08;;;;;;;;;;5022167;28;20402;-82
2023/06/27 00:13:15;;;;;;;13.02;3.03;;;;;;;;;;5021820;28;20510;-85
2023/06/27 00:15:42;;;;;;;5.93;2.78;;;;;;;;;;5021165;28;20699;-84
2023/06/27 00:18:10;;;;;;;7.22;2.08;;;;;;;;;;5038906;28;20092;-82
2023/06/27 00:20:38;;;;;;;11.32;2.70;;;;;;;;;;5039260;28;20052;-80
2023/06/27 00:23:17;;;;;;;9.50;2.83;;;;;;;;;;5024574;28;20339;-83
2023/06/27 00:25:46;;;;;;;10.95;2.38;;;;;;;;;;5012973;28;20046;-85
2023/06/27 00:28:13;;;;;;;11.00;2.60;;;;;;;;;;5032848;28;20434;-83
2023/06/27 00:30:40;;;;;;;9.07;2.70;;;;;;;;;;5023603;28;20058;-83
2023/06/27 00:33:09;;;;;;;7.50;2.63;;;;;;;;;;5027008;28;20521;-82
2023/06/27 00:35:38;;;;;;;12.25;2.75;;;;;;;;;;5026748;28;20046;-83
2023/06/27 00:38:06;;;;;;;10.90;2.75;;;;;;;;;;5044356;28;20038;-82
2023/06/27 00:40:52;;;;;;;8.50;2.97;;;;;;;;;;5000587;28;20107;-82
2023/06/27 00:43:19;;;;;;;6.03;2.75;;;;;;;;;;5022651;28;20053;-82
2023/06/27 00:45:47;;;;;;;8.73;2.83;;;;;;;;;;5015291;28;20109;-83
2023/06/27 00:48:14;;;;;;;8.15;2.70;;;;;;;;;;5022107;28;20417;-84
2023/06/27 00:50:41;;;;;;;7.28;2.70;;;;;;;;;;5041493;28;20049;-83
2023/06/27 00:53:08;;;;;;;10.18;2.95;;;;;;;;;;5022252;28;20045;-83
2023/06/27 00:55:37;;;;;;;7.85;2.72;;;;;;;;;;5022841;28;20533;-83
2023/06/27 00:58:06;;;;;;;17.75;3.40;;;;;;;;;;5005239;28;20052;-83
2023/06/27 01:00:32;;;;;;;7.25;2.67;;;;;;;;;;5004315;28;20049;-82
2023/06/27 01:02:59;;;;;;;8.68;3.13;;;;;;;;;;4991464;28;20049;-82
2023/06/27 01:05:27;;;;;;;7.65;2.72;;;;;;;;;;5000408;28;20064;-80
2023/06/27 01:08:06;;;;;;;12.98;3.15;;;;;;;;;;4999600;28;20050;-82
2023/06/27 01:10:44;;;;;;;7.55;2.60;;;;;;;;;;5016920;28;20141;-83
2023/06/27 01:13:10;;;;;;;6.28;2.60;;;;;;;;;;4998871;28;20128;-81
2023/06/27 01:15:38;;;;;;;13.13;3.13;;;;;;;;;;5020193;28;20042;-83
2023/06/27 01:18:06;;;;;;;9.95;2.50;;;;;;;;;;5003775;28;20058;-82
2023/06/27 01:20:33;;;;;;;13.63;3.33;;;;;;;;;;5002839;28;20050;-82
2023/06/27 01:23:14;;;;;;;6.57;3.08;;;;;;;;;;5002201;28;20555;-82
2023/06/27 01:25:40;;;;;;;13.10;2.65;;;;;;;;;;5001751;28;20064;-83
2023/06/27 01:28:14;;;;;;;9.65;2.92;;;;;;;;;;5018750;28;20106;-81
2023/06/27 01:30:41;;;;;;;10.57;2.70;;;;;;;;;;5006658;28;20778;-83
2023/06/27 01:33:19;;;;;;;8.38;2.92;;;;;;;;;;4989139;28;20075;-82
2023/06/27 01:35:59;;;;;;;13.43;2.55;;;;;;;;;;4998874;28;20065;-82
2023/06/27 01:38:30;;;;;;;8.88;2.78;;;;;;;;;;4998432;28;20368;-83
2023/06/27 01:40:59;;;;;;;14.15;2.60;;;;;;;;;;4998973;28;20407;-82
2023/06/27 01:43:27;;;;;;;9.52;2.40;;;;;;;;;;5000830;28;20077;-82
2023/06/27 01:45:54;;;;;;;6.30;2.15;;;;;;;;;;5021001;28;20441;-85
2023/06/27 01:48:25;;;;;;;6.25;1.83;;;;;;;;;;5014827;28;20513;-81
2023/06/27 01:50:53;;;;;;;6.63;2.00;;;;;;;;;;5031735;28;20095;-82
2023/06/27 01:53:20;;;;;;;8.95;2.30;;;;;;;;;;5032945;28;20071;-82
2023/06/27 01:55:46;;;;;;;10.43;2.40;;;;;;;;;;5018952;28;20045;-82
2023/06/27 01:58:13;;;;;;;5.53;1.80;;;;;;;;;;5043393;28;20052;-82
2023/06/27 02:00:40;;;;;;;5.10;1.88;;;;;;;;;;5008981;28;20056;-82
2023/06/27 02:03:06;;;;;;;10.88;1.90;;;;;;;;;;5041798;28;20116;-83
2023/06/27 02:05:36;;;;;;;14.38;2.20;;;;;;;;;;5010317;28;20176;-83
2023/06/27 02:08:04;;;;;;;10.43;2.40;;;;;;;;;;5023839;28;20554;-82
2023/06/27 02:10:31;;;;;;;8.25;2.20;;;;;;;;;;5021857;28;20045;-83
2023/06/27 02:12:58;;;;;;;12.13;2.00;;;;;;;;;;5022806;28;20461;-83
2023/06/27 02:15:24;;;;;;;9.20;2.15;;;;;;;;;;5007557;28;20056;-83
2023/06/27 02:17:51;;;;;;;5.13;1.75;;;;;;;;;;5013822;28;20041;-82
2023/06/27 02:20:20;;;;;;;8.52;1.83;;;;;;;;;;5040438;28;20112;-83
2023/06/27 02:22:46;;;;;;;4.93;2.00;;;;;;;;;;5039680;28;20041;-85
2023/06/27 02:25:13;;;;;;;10.77;2.00;;;;;;;;;;5039780;28;20054;-84
2023/06/27 02:27:40;;;;;;;9.38;2.15;;;;;;;;;;5036728;28;20061;-82
2023/06/27 02:30:10;;;;;;;6.35;1.83;;;;;;;;;;5018772;28;20041;-84
2023/06/27 02:32:37;;;;;;;11.52;1.80;;;;;;;;;;5036759;28;20046;-82
2023/06/27 02:35:03;;;;;;;10.40;1.98;;;;;;;;;;5021039;28;20098;-84
2023/06/27 02:37:30;;;;;;;5.13;1.67;;;;;;;;;;5037876;28;20136;-86
2023/06/27 02:39:57;;;;;;;8.43;2.03;;;;;;;;;;5044036;28;20045;-82
2023/06/27 02:42:28;;;;;;;9.40;2.03;;;;;;;;;;5031670;28;20454;-83
2023/06/27 02:44:55;;;;;;;10.20;2.17;;;;;;;;;;5023115;28;20045;-83
2023/06/27 02:47:22;;;;;;;10.10;2.08;;;;;;;;;;5038679;28;20046;-82
2023/06/27 02:49:48;;;;;;;8.80;2.22;;;;;;;;;;5022173;28;20045;-83
2023/06/27 02:52:15;;;;;;;8.82;2.25;;;;;;;;;;5006223;28;20067;-83
2023/06/27 02:54:43;;;;;;;13.52;2.20;;;;;;;;;;5024983;28;20576;-82
2023/06/27 02:57:10;;;;;;;9.85;2.20;;;;;;;;;;5033161;28;20132;-86
2023/06/27 02:59:38;;;;;;;7.55;1.98;;;;;;;;;;5019961;28;20049;-83
2023/06/27 03:02:05;;;;;;;8.38;1.90;;;;;;;;;;5006389;28;20101;-82
2023/06/27 03:04:32;;;;;;;8.90;1.67;;;;;;;;;;5041603;28;20195;-85
2023/06/27 03:06:59;;;;;;;6.70;1.85;;;;;;;;;;5023640;28;20045;-82
2023/06/27 03:09:25;;;;;;;5.82;1.45;;;;;;;;;;5006613;28;20103;-82
2023/06/27 03:11:52;;;;;;;4.93;1.77;;;;;;;;;;5005272;28;20041;-84
2023/06/27 03:14:22;;;;;;;5.35;1.58;;;;;;;;;;5024246;28;20049;-82
2023/06/27 03:16:51;;;;;;;7.82;1.65;;;;;;;;;;5023464;28;20037;-83
2023/06/27 03:19:20;;;;;;;7.32;1.40;;;;;;;;;;5005963;28;20053;-80
2023/06/27 03:22:07;;;;;;;5.75;1.90;;;;;;;;;;5003953;28;20041;-84
2023/06/27 03:24:34;;;;;;;6.75;1.85;;;;;;;;;;5007331;28;20049;-84
2023/06/27 03:27:01;;;;;;;8.07;1.95;;;;;;;;;;5029482;28;20346;-83
2023/06/27 03:29:28;;;;;;;7.53;1.80;;;;;;;;;;5005857;28;20112;-86
2023/06/27 03:31:59;;;;;;;7.68;1.60;;;;;;;;;;5014334;28;20045;-84
2023/06/27 03:34:27;;;;;;;6.63;1.83;;;;;;;;;;5012518;28;20079;-84
2023/06/27 03:36:53;;;;;;;9.63;1.88;;;;;;;;;;5018262;28;20110;-82
2023/06/27 03:39:20;;;;;;;8.18;1.88;;;;;;;;;;5000598;28;20069;-83
2023/06/27 03:41:47;;;;;;;7.78;1.73;;;;;;;;;;5017030;28;20110;-84
2023/06/27 03:44:14;;;;;;;8.43;1.70;;;;;;;;;;4999441;28;20054;-82
2023/06/27 03:46:41;;;;;;;4.70;1.55;;;;;;;;;;5009829;28;20034;-83
2023/06/27 03:49:08;;;;;;;6.05;1.88;;;;;;;;;;4999824;28;20061;-79
2023/06/27 03:51:39;;;;;;;8.95;1.92;;;;;;;;;;5000504;28;20037;-84
2023/06/27 03:54:07;;;;;;;10.45;2.10;;;;;;;;;;4998223;28;20494;-83
2023/06/27 03:56:34;;;;;;;8.80;1.95;;;;;;;;;;5008094;28;20100;-83
2023/06/27 03:59:00;;;;;;;10.07;2.15;;;;;;;;;;4995122;28;20572;-82
2023/06/27 04:01:27;;;;;;;9.60;1.73;;;;;;;;;;5003250;28;20045;-82
2023/06/27 04:03:54;;;;;;;6.28;2.20;;;;;;;;;;5015114;28;20069;-81
2023/06/27 04:06:21;;;;;;;5.72;1.50;;;;;;;;;;5014186;28;20076;-83
2023/06/27 04:08:50;;;;;;;11.40;1.90;;;;;;;;;;4993814;28;20068;-82
2023/06/27 04:11:17;;;;;;;7.22;1.77;;;;;;;;;;5010221;28;20057;-81
2023/06/27 04:13:44;;;;;;;8.65;1.70;;;;;;;;;;5012417;28;20137;-83
2023/06/27 04:16:11;;;;;;;8.95;2.13;;;;;;;;;;5013976;28;20058;-80
2023/06/27 04:18:38;;;;;;;7.07;1.73;;;;;;;;;;4989837;28;20045;-82
2023/06/27 04:21:06;;;;;;;9.32;1.50;;;;;;;;;;4998953;28;20034;-81
2023/06/27 04:23:33;;;;;;;6.40;1.55;;;;;;;;;;4981195;28;20041;-81
2023/06/27 04:26:07;;;;;;;9.45;1.60;;;;;;;;;;5014935;28;20046;-81
2023/06/27 04:28:35;;;;;;;7.47;1.50;;;;;;;;;;4995396;28;20045;-82
2023/06/27 04:31:13;;;;;;;11.85;1.95;;;;;;;;;;5030916;28;20048;-82
2023/06/27 04:33:44;;;;;;;7.25;1.65;;;;;;;;;;5014540;28;20049;-82
2023/06/27 04:36:20;;;;;;;5.82;1.67;;;;;;;;;;5003437;28;20099;-82
2023/06/27 04:38:56;;;;;;;9.07;1.58;;;;;;;;;;4999403;28;20129;-81
2023/06/27 04:41:23;;;;;;;7.32;1.83;;;;;;;;;;5017385;28;20049;-82
2023/06/27 04:43:52;;;;;;;7.03;1.63;;;;;;;;;;4998288;28;20041;-81
2023/06/27 04:46:19;;;;;;;5.75;1.65;;;;;;;;;;5010257;28;20112;-81
2023/06/27 04:48:46;;;;;;;8.25;1.73;;;;;;;;;;4999395;28;20168;-82
2023/06/27 04:51:13;;;;;;;7.63;1.70;;;;;;;;;;5010863;28;20113;-81
2023/06/27 04:53:40;;;;;;;10.63;2.20;;;;;;;;;;5041291;28;20038;-81
2023/06/27 04:56:06;;;;;;;6.68;1.75;;;;;;;;;;4993761;28;20049;-80
2023/06/27 04:58:33;;;;;;;9.43;1.85;;;;;;;;;;5008936;28;20045;-81
2023/06/27 05:01:00;;;;;;;9.35;1.70;;;;;;;;;;5031228;28;20493;-81
2023/06/27 05:03:26;;;;;;;8.82;1.92;;;;;;;;;;5015622;28;20108;-81
2023/06/27 05:05:53;;;;;;;8.52;1.90;;;;;;;;;;5010461;28;20049;-81
2023/06/27 05:08:19;;;;;;;12.95;1.90;;;;;;;;;;5011190;28;20038;-81
2023/06/27 05:10:46;;;;;;;7.97;1.95;;;;;;;;;;5019344;28;20100;-85
2023/06/27 05:13:15;;;;;;;6.22;1.83;;;;;;;;;;5024652;28;20047;-82
2023/06/27 05:15:42;;;;;;;10.00;1.92;;;;;;;;;;5022409;28;20053;-81
2023/06/27 05:18:13;;;;;;;12.50;1.83;;;;;;;;;;5024586;28;20045;-82
2023/06/27 05:20:44;;;;;;;5.82;1.67;;;;;;;;;;5025262;28;20054;-84
2023/06/27 05:23:11;;;;;;;8.95;1.77;;;;;;;;;;5025118;28;20207;-84
2023/06/27 05:25:38;;;;;;;14.43;2.17;;;;;;;;;;5024354;28;20114;-83
2023/06/27 05:28:04;;;;;;;14.68;1.98;;;;;;;;;;5023478;28;20037;-82
2023/06/27 05:30:32;;;;;;;10.68;1.85;;;;;;;;;;5022869;28;20049;-82
2023/06/27 05:33:01;;;;;;;15.30;1.98;;;;;;;;;;5022146;28;20053;-82
2023/06/27 05:35:28;;;;;;;13.63;2.28;;;;;;;;;;5025624;28;20207;-81
2023/06/27 05:37:55;;;;;;;6.55;1.80;;;;;;;;;;5024908;28;20060;-82
2023/06/27 05:40:21;;;;;;;9.68;1.95;;;;;;;;;;5037038;28;20075;-83
2023/06/27 05:42:48;;;;;;;9.85;1.85;;;;;;;;;;5032801;28;20042;-81
2023/06/27 05:45:14;;;;;;;11.80;2.33;;;;;;;;;;5006164;28;20099;-80
2023/06/27 05:47:44;;;;;;;11.93;2.63;;;;;;;;;;5002601;28;20133;-81
2023/06/27 05:50:11;;;;;;;11.75;2.30;;;;;;;;;;4985681;28;20119;-81
2023/06/27 05:52:38;;;;;;;14.40;2.40;;;;;;;;;;4985080;28;20053;-81
2023/06/27 05:55:04;;;;;;;12.43;1.77;;;;;;;;;;5018560;28;20148;-80
2023/06/27 05:57:31;;;;;;;8.27;2.00;;;;;;;;;;5015184;28;20167;-82
2023/06/27 05:59:58;;;;;;;11.13;2.08;;;;;;;;;;5039441;28;20350;-83
2023/06/27 06:02:24;;;;;;;12.70;2.10;;;;;;;;;;5007514;28;20054;-84
2023/06/27 06:04:51;;;;;;;6.68;2.00;;;;;;;;;;5008967;28;20049;-81
2023/06/27 06:07:17;;;;;;;9.07;2.05;;;;;;;;;;5042365;28;20040;-81
2023/06/27 06:09:44;;;;;;;9.65;2.10;;;;;;;;;;5009058;28;20045;-82
2023/06/27 06:12:11;;;;;;;8.48;2.28;;;;;;;;;;5042182;28;20105;-81
2023/06/27 06:14:37;;;;;;;11.68;2.10;;;;;;;;;;5023911;28;20057;-83
2023/06/27 06:17:04;;;;;;;9.30;2.42;;;;;;;;;;5023642;28;20045;-83
2023/06/27 06:19:31;;;;;;;11.38;2.72;;;;;;;;;;5006727;28;20521;-83
2023/06/27 06:21:57;;;;;;;7.00;2.25;;;;;;;;;;5023545;28;20037;-83
2023/06/27 06:24:24;;;;;;;7.72;2.20;;;;;;;;;;5041054;28;20525;-82
2023/06/27 06:26:50;;;;;;;9.38;2.00;;;;;;;;;;5011897;28;20096;-82
2023/06/27 06:29:17;;;;;;;8.90;2.20;;;;;;;;;;5045521;28;20057;-83
2023/06/27 06:31:44;;;;;;;9.65;2.15;;;;;;;;;;5026176;28;20045;-81
2023/06/27 06:34:12;;;;;;;8.60;2.00;;;;;;;;;;5043722;28;20105;-83
2023/06/27 06:36:38;;;;;;;8.93;2.05;;;;;;;;;;5022231;28;20524;-82
2023/06/27 06:39:05;;;;;;;12.75;2.10;;;;;;;;;;5020077;28;20045;-84
2023/06/27 06:41:31;;;;;;;8.80;2.28;;;;;;;;;;5018754;28;20050;-82
2023/06/27 06:43:58;;;;;;;7.28;1.98;;;;;;;;;;5008680;28;20045;-83
2023/06/27 06:46:24;;;;;;;11.02;1.80;;;;;;;;;;5001172;28;20417;-82
2023/06/27 06:48:51;;;;;;;11.23;2.00;;;;;;;;;;5005183;28;20567;-83
2023/06/27 06:51:18;;;;;;;10.95;1.95;;;;;;;;;;5020581;28;20046;-84
2023/06/27 06:53:44;;;;;;;9.80;1.70;;;;;;;;;;5020199;28;20046;-82
2023/06/27 06:56:11;;;;;;;7.07;1.80;;;;;;;;;;5002383;28;20477;-83
2023/06/27 06:58:38;;;;;;;7.90;1.70;;;;;;;;;;5019103;28;20053;-82
2023/06/27 07:01:04;;;;;;;7.03;2.00;;;;;;;;;;5021188;28;20057;-84
2023/06/27 07:03:33;;;;;;;8.95;1.95;;;;;;;;;;5023611;28;20037;-84
2023/06/27 07:06:00;;;;;;;6.07;1.77;;;;;;;;;;5025574;28;20096;-83
2023/06/27 07:08:27;;;;;;;9.75;1.80;;;;;;;;;;5042929;28;20050;-82
2023/06/27 07:10:53;;;;;;;9.85;2.05;;;;;;;;;;5024992;28;20053;-83
2023/06/27 07:13:20;;;;;;;6.65;1.60;;;;;;;;;;5023737;28;20045;-83
2023/06/27 07:15:46;;;;;;;4.38;1.63;;;;;;;;;;5023181;28;20204;-84
2023/06/27 07:18:13;;;;;;;5.97;1.98;;;;;;;;;;5039847;28;20037;-84
2023/06/27 07:20:40;;;;;;;5.57;1.45;;;;;;;;;;5021807;28;20056;-84
2023/06/27 07:23:06;;;;;;;9.82;1.70;;;;;;;;;;5021234;28;20046;-82
2023/06/27 07:25:35;;;;;;;6.50;1.70;;;;;;;;;;5040731;28;20049;-84
2023/06/27 07:28:05;;;;;;;10.10;1.63;;;;;;;;;;5006688;28;20107;-85
2023/06/27 07:30:31;;;;;;;7.20;1.85;;;;;;;;;;5005988;28;20053;-83
2023/06/27 07:32:58;;;;;;;8.48;1.50;;;;;;;;;;5022786;28;20049;-85
2023/06/27 07:35:25;;;;;;;8.20;1.70;;;;;;;;;;5023528;28;20065;-81
2023/06/27 07:37:51;;;;;;;4.88;1.50;;;;;;;;;;5004424;28;20046;-81
2023/06/27 07:40:18;;;;;;;4.20;1.40;;;;;;;;;;5034213;28;20108;-82
2023/06/27 07:42:44;;;;;;;9.95;1.60;;;;;;;;;;5035718;28;20053;-84
2023/06/27 07:45:11;;;;;;;8.70;1.77;;;;;;;;;;5024367;28;20054;-83
2023/06/27 07:47:37;;;;;;;8.23;1.90;;;;;;;;;;5022204;28;20074;-83
2023/06/27 07:50:04;;;;;;;6.85;1.65;;;;;;;;;;5020461;28;20065;-84
2023/06/27 07:52:31;;;;;;;5.53;1.60;;;;;;;;;;5019739;28;20121;-82
2023/06/27 07:54:57;;;;;;;5.80;1.27;;;;;;;;;;5014166;28;20430;-82
2023/06/27 07:57:24;;;;;;;7.18;1.48;;;;;;;;;;5012096;28;20045;-84
2023/06/27 07:59:50;;;;;;;6.07;1.52;;;;;;;;;;5013406;28;20121;-82
2023/06/27 08:02:17;;;;;;;5.70;1.40;;;;;;;;;;5016459;28;20042;-83
2023/06/27 08:04:44;;;;;;;5.50;1.42;;;;;;;;;;5021655;28;20057;-82
2023/06/27 08:07:10;;;;;;;5.65;1.42;;;;;;;;;;5019366;28;20105;-83
2023/06/27 08:09:37;;;;;;;7.63;1.50;;;;;;;;;;5021363;28;20114;-83
2023/06/27 08:12:06;;;;;;;4.70;1.50;;;;;;;;;;5020705;28;20096;-84
2023/06/27 08:14:32;;;;;;;7.88;1.80;;;;;;;;;;5018120;28;20042;-82
2023/06/27 08:17:00;;;;;;;3.35;1.10;;;;;;;;;;5018271;28;20053;-85
2023/06/27 08:19:27;;;;;;;7.55;1.55;;;;;;;;;;5017157;28;20049;-88
2023/06/27 08:21:54;;;;;;;6.78;1.10;;;;;;;;;;5018498;28;20056;-83
2023/06/27 08:24:20;;;;;;;7.88;1.15;;;;;;;;;;5016724;28;20124;-84
2023/06/27 08:26:49;;;;;;;8.15;1.20;;;;;;;;;;5016445;28;20076;-84
2023/06/27 08:29:16;;;;;;;5.07;1.33;;;;;;;;;;5000002;28;20064;-85
2023/06/27 08:31:43;;;;;;;5.63;1.30;;;;;;;;;;5019449;28;20077;-82
2023/06/27 08:34:09;;;;;;;7.50;1.52;;;;;;;;;;5019162;28;20053;-82
2023/06/27 08:36:36;;;;;;;2.47;1.30;;;;;;;;;;5009719;28;20046;-84
2023/06/27 08:39:03;;;;;;;5.10;1.02;;;;;;;;;;5011414;28;20050;-83
2023/06/27 08:41:30;;;;;;;8.40;1.35;;;;;;;;;;5015577;28;20042;-81
2023/06/27 08:43:57;;;;;;;5.53;1.27;;;;;;;;;;5019705;28;20042;-84
2023/06/27 08:46:24;;;;;;;5.50;1.33;;;;;;;;;;5005927;28;20068;-84
2023/06/27 08:48:52;;;;;;;7.65;1.20;;;;;;;;;;5016957;28;20046;-83
2023/06/27 08:51:21;;;;;;;1.85;0.80;;;;;;;;;;5003387;28;20042;-86
2023/06/27 08:53:48;;;;;;;6.40;1.20;;;;;;;;;;5004387;28;20042;-85
2023/06/27 08:56:16;;;;;;;3.05;0.90;;;;;;;;;;5006431;28;20041;-87
2023/06/27 08:58:50;;;;;;;4.97;1.00;;;;;;;;;;5007083;28;20505;-84
2023/06/27 09:01:17;;;;;;;10.07;1.27;;;;;;;;;;5022403;28;20431;-86
2023/06/27 09:03:43;;;;;;;10.05;1.10;;;;;;;;;;5008781;28;20049;-82
2023/06/27 09:06:11;;;;;;;3.75;0.82;;;;;;;;;;5022665;28;20045;-83
2023/06/27 09:08:38;;;;;;;5.22;0.90;;;;;;;;;;5023926;28;20041;-85
2023/06/27 09:11:08;;;;;;;5.22;0.90;;;;;;;;;;5041297;28;20045;-83
2023/06/27 09:13:37;;;;;;;2.42;0.70;;;;;;;;;;5023521;28;20076;-83
2023/06/27 09:16:05;;;;;;;5.75;1.20;;;;;;;;;;5023187;28;20052;-81
2023/06/27 09:18:34;;;;;;;3.85;1.10;;;;;;;;;;5023893;28;20513;-84
2023/06/27 09:21:00;;;;;;;2.58;0.95;;;;;;;;;;5042559;28;20055;-83
2023/06/27 09:23:28;;;;;;;5.75;1.10;;;;;;;;;;5008585;28;20069;-84
2023/06/27 09:26:08;;;;;;;5.22;1.00;;;;;;;;;;5021794;28;20050;-85
2023/06/27 09:28:43;;;;;;;6.97;1.38;;;;;;;;;;5004747;28;20057;-84
2023/06/27 09:31:10;;;;;;;7.22;0.80;;;;;;;;;;5017963;28;20045;-85
2023/06/27 09:33:36;;;;;;;6.28;1.10;;;;;;;;;;5021540;28;20117;-86
2023/06/27 09:36:08;;;;;;;4.05;1.00;;;;;;;;;;5040334;28;20164;-84
2023/06/27 09:38:35;;;;;;;3.72;1.00;;;;;;;;;;5020626;28;20041;-82
2023/06/27 09:41:05;;;;;;;3.10;0.82;;;;;;;;;;5022667;28;20413;-83
2023/06/27 09:43:35;;;;;;;3.47;1.00;;;;;;;;;;5018378;28;20107;-84
2023/06/27 09:46:05;;;;;;;2.47;0.95;;;;;;;;;;5023053;28;20065;-83
2023/06/27 09:48:34;;;;;;;9.63;0.95;;;;;;;;;;5005706;28;20041;-82
2023/06/27 09:51:02;;;;;;;5.80;1.13;;;;;;;;;;5025650;28;20046;-84
2023/06/27 09:53:30;;;;;;;6.88;0.95;;;;;;;;;;5029657;28;20049;-85
2023/06/27 09:56:00;;;;;;;7.95;1.17;;;;;;;;;;5013709;28;20465;-83
2023/06/27 09:58:29;;;;;;;5.60;1.20;;;;;;;;;;5011348;28;20050;-87
2023/06/27 10:01:07;;;;;;;5.65;0.88;;;;;;;;;;5021850;28;20049;-85
2023/06/27 10:03:36;;;;;;;2.95;1.00;;;;;;;;;;5025116;28;20047;-86
2023/06/27 10:06:03;;;;;;;5.55;1.00;;;;;;;;;;5009172;28;20046;-85
2023/06/27 10:08:38;;;;;;;9.18;1.10;;;;;;;;;;5020458;28;20052;-83
2023/06/27 10:11:05;;;;;;;6.85;1.10;;;;;;;;;;5008239;28;20041;-83
2023/06/27 10:13:32;;;;;;;6.43;1.00;;;;;;;;;;5017676;28;20069;-85
2023/06/27 10:15:59;;;;;;;6.80;1.30;;;;;;;;;;5019106;28;20049;-82
2023/06/27 10:18:26;;;;;;;5.63;1.10;;;;;;;;;;5041381;28;20083;-84
2023/06/27 10:20:56;;;;;;;3.60;1.00;;;;;;;;;;5004409;28;20090;-84
2023/06/27 10:23:24;;;;;;;2.42;0.98;;;;;;;;;;5023113;28;20053;-86
2023/06/27 10:25:52;;;;;;;3.05;1.02;;;;;;;;;;5003836;28;20055;-85
2023/06/27 10:28:19;;;;;;;6.93;0.90;;;;;;;;;;5020416;28;20128;-83
2023/06/27 10:30:46;;;;;;;2.08;1.10;;;;;;;;;;5019638;28;20461;-84
2023/06/27 10:33:16;;;;;;;4.90;1.20;;;;;;;;;;5008160;28;20042;-82
2023/06/27 10:35:49;;;;;;;2.65;0.77;;;;;;;;;;5023675;28;20053;-83
2023/06/27 10:38:17;;;;;;;4.13;1.10;;;;;;;;;;5021699;28;20068;-82
2023/06/27 10:41:03;;;;;;;3.92;1.25;;;;;;;;;;5040319;28;20041;-86
2023/06/27 10:43:45;;;;;;;3.38;0.88;;;;;;;;;;5014758;28;20053;-84
2023/06/27 10:46:19;;;;;;;7.18;1.00;;;;;;;;;;5012820;28;20225;-84
2023/06/27 10:48:57;;;;;;;2.28;0.95;;;;;;;;;;5022065;28;20049;-82
2023/06/27 10:51:32;;;;;;;4.43;1.00;;;;;;;;;;5021259;28;20049;-85
2023/06/27 10:54:15;;;;;;;2.87;0.77;;;;;;;;;;5038637;28;20124;-83
2023/06/27 10:56:41;;;;;;;11.15;0.90;;;;;;;;;;5032009;28;20137;-84
2023/06/27 10:59:13;;;;;;;4.38;1.02;;;;;;;;;;5018468;28;20561;-86
2023/06/27 11:01:41;;;;;;;7.32;1.00;;;;;;;;;;4986966;28;20034;-86
2023/06/27 11:04:18;;;;;;;1.63;0.80;;;;;;;;;;5005747;28;20065;-86
2023/06/27 11:06:45;;;;;;;4.43;0.93;;;;;;;;;;5002955;28;20048;-85
2023/06/27 11:09:18;;;;;;;4.63;0.93;;;;;;;;;;5017709;28;20407;-84
2023/06/27 11:11:54;;;;;;;5.40;1.10;;;;;;;;;;5018835;28;20081;-86
2023/06/27 11:14:35;;;;;;;4.13;0.93;;;;;;;;;;4986677;28;20053;-84
2023/06/27 11:17:03;;;;;;;5.97;0.80;;;;;;;;;;5002857;28;20103;-85
2023/06/27 11:19:31;;;;;;;5.28;0.77;;;;;;;;;;5005994;28;20323;-86
2023/06/27 11:21:59;;;;;;;5.15;0.95;;;;;;;;;;5004598;28;20125;-85
2023/06/27 11:24:26;;;;;;;6.15;1.20;;;;;;;;;;4998961;28;20057;-82
2023/06/27 11:26:53;;;;;;;3.38;1.10;;;;;;;;;;4999535;28;20046;-83
2023/06/27 11:29:20;;;;;;;2.65;0.70;;;;;;;;;;5015908;28;20050;-84
2023/06/27 11:31:48;;;;;;;6.28;1.00;;;;;;;;;;4985090;28;20069;-84
2023/06/27 11:34:15;;;;;;;5.93;1.02;;;;;;;;;;5019587;28;20046;-81
2023/06/27 11:36:43;;;;;;;3.47;1.00;;;;;;;;;;4999436;28;20049;-84
2023/06/27 11:39:10;;;;;;;5.70;1.02;;;;;;;;;;4993219;28;20522;-85
2023/06/27 11:41:39;;;;;;;6.65;1.27;;;;;;;;;;4981755;28;20468;-83
2023/06/27 11:44:15;;;;;;;8.07;0.90;;;;;;;;;;5020846;28;20045;-84
2023/06/27 11:46:51;;;;;;;8.32;1.13;;;;;;;;;;5016835;28;20045;-82
2023/06/27 11:49:21;;;;;;;5.00;1.10;;;;;;;;;;5018387;28;20046;-83
2023/06/27 11:51:48;;;;;;;5.63;1.20;;;;;;;;;;5014348;28;20049;-83
2023/06/27 11:54:16;;;;;;;5.80;1.10;;;;;;;;;;5014697;28;20080;-82
2023/06/27 11:56:43;;;;;;;6.28;1.08;;;;;;;;;;5015464;28;20178;-82
2023/06/27 11:59:10;;;;;;;8.80;1.13;;;;;;;;;;5014387;28;20553;-84
2023/06/27 12:01:40;;;;;;;3.53;1.05;;;;;;;;;;5017608;28;20156;-84
2023/06/27 12:04:16;;;;;;;4.28;1.00;;;;;;;;;;5014823;28;20057;-84
2023/06/27 12:06:43;;;;;;;4.45;0.93;;;;;;;;;;5021887;28;20058;-83
2023/06/27 12:09:22;;;;;;;4.25;1.20;;;;;;;;;;5002636;28;20089;-82
2023/06/27 12:11:53;;;;;;;3.70;1.00;;;;;;;;;;5022074;28;20499;-83
2023/06/27 12:14:22;;;;;;;4.93;0.90;;;;;;;;;;5017625;28;20429;-84
2023/06/27 12:16:49;;;;;;;6.88;1.08;;;;;;;;;;5017172;28;20038;-82
2023/06/27 12:19:20;;;;;;;3.30;1.00;;;;;;;;;;5024634;28;20049;-81
2023/06/27 12:21:47;;;;;;;7.53;1.20;;;;;;;;;;5014310;28;20045;-83
2023/06/27 12:24:14;;;;;;;2.63;1.00;;;;;;;;;;5015804;28;20046;-82
2023/06/27 12:26:41;;;;;;;4.25;1.00;;;;;;;;;;5019904;28;20140;-84
2023/06/27 12:29:08;;;;;;;2.60;1.08;;;;;;;;;;5003648;28;20069;-85
2023/06/27 12:31:35;;;;;;;1.42;0.90;;;;;;;;;;5019028;28;20050;-83
2023/06/27 12:34:04;;;;;;;7.05;1.05;;;;;;;;;;5019217;28;20065;-85
2023/06/27 12:36:32;;;;;;;5.10;0.95;;;;;;;;;;5018660;28;20219;-84
2023/06/27 12:38:59;;;;;;;1.90;0.90;;;;;;;;;;5023322;28;20050;-86
2023/06/27 12:41:26;;;;;;;5.47;1.02;;;;;;;;;;5028341;28;20049;-83
2023/06/27 12:43:53;;;;;;;3.90;1.02;;;;;;;;;;5022181;28;20045;-86
2023/06/27 12:46:20;;;;;;;5.68;1.13;;;;;;;;;;5006613;28;20047;-86
2023/06/27 12:48:47;;;;;;;4.00;1.00;;;;;;;;;;5043592;28;20050;-82
2023/06/27 12:51:13;;;;;;;6.65;1.00;;;;;;;;;;5024341;28;20084;-84
2023/06/27 12:53:46;;;;;;;2.63;0.93;;;;;;;;;;5023797;28;20050;-85
2023/06/27 12:56:13;;;;;;;3.08;0.90;;;;;;;;;;5019833;28;20056;-83
2023/06/27 12:58:41;;;;;;;6.80;0.90;;;;;;;;;;5003551;28;20038;-84
2023/06/27 13:01:09;;;;;;;4.93;0.90;;;;;;;;;;5014466;28;20041;-84
2023/06/27 13:03:36;;;;;;;3.70;1.13;;;;;;;;;;5041655;28;20060;-84
2023/06/27 13:06:03;;;;;;;5.15;1.00;;;;;;;;;;5037851;28;20051;-83
2023/06/27 13:08:30;;;;;;;6.93;1.00;;;;;;;;;;5039016;28;20045;-85
2023/06/27 13:10:57;;;;;;;5.18;1.10;;;;;;;;;;5041062;28;20073;-83
2023/06/27 13:13:23;;;;;;;4.75;0.90;;;;;;;;;;5037804;28;20101;-86
2023/06/27 13:15:50;;;;;;;4.93;1.05;;;;;;;;;;5041222;28;20533;-82
2023/06/27 13:18:39;;;;;;;8.40;1.10;;;;;;;;;;5037499;28;20052;-83
2023/06/27 13:21:06;;;;;;;3.42;1.20;;;;;;;;;;5037682;28;20052;-83
2023/06/27 13:23:33;;;;;;;4.53;1.02;;;;;;;;;;5021157;28;20673;-75
2023/06/27 13:26:00;;;;;;;4.25;1.00;;;;;;;;;;5013998;28;20042;-75
2023/06/27 13:28:28;;;;;;;3.58;0.80;;;;;;;;;;4995181;28;20041;-75
2023/06/27 13:30:54;;;;;;;3.17;1.00;;;;;;;;;;5009923;28;20065;-74
2023/06/27 13:33:21;;;;;;;5.32;1.20;;;;;;;;;;5011468;28;20556;-74
2023/06/27 13:35:48;;;;;;;2.75;0.93;;;;;;;;;;5008894;28;20097;-75
2023/06/27 13:38:15;;;;;;;3.13;1.10;;;;;;;;;;5006453;28;20049;-76
2023/06/27 13:40:41;;;;;;;3.50;1.10;;;;;;;;;;4998924;28;20429;-76
2023/06/27 13:43:08;;;;;;;1.90;1.10;;;;;;;;;;5024954;28;20200;-76
2023/06/27 13:45:35;;;;;;;4.80;1.00;;;;;;;;;;4995546;28;20061;-75
2023/06/27 13:48:01;;;;;;;2.95;1.08;;;;;;;;;;5012496;28;20055;-74
2023/06/27 13:50:28;;;;;;;2.83;1.20;;;;;;;;;;5005897;28;20449;-75
2023/06/27 13:52:56;;;;;;;2.70;1.00;;;;;;;;;;5028295;28;20507;-74
2023/06/27 13:55:23;;;;;;;3.45;1.20;;;;;;;;;;5025054;28;20134;-74
2023/06/27 13:57:51;;;;;;;2.63;1.10;;;;;;;;;;5009309;28;20057;-76
2023/06/27 14:00:18;;;;;;;3.25;1.23;;;;;;;;;;5009360;28;20083;-76
2023/06/27 14:02:46;;;;;;;3.58;1.30;;;;;;;;;;5028183;28;20045;-74
2023/06/27 14:05:31;;;;;;;3.57;0.93;;;;;;;;;;4990376;28;20038;-74
2023/06/27 14:07:58;;;;;;;3.65;1.20;;;;;;;;;;5020967;28;20038;-73
2023/06/27 14:10:26;;;;;;;4.20;1.65;;;;;;;;;;5009620;28;20090;-84
2023/06/27 14:12:55;;;;;;;3.70;1.20;;;;;;;;;;5031242;28;20537;-84
2023/06/27 14:15:23;;;;;;;2.83;1.20;;;;;;;;;;5021650;28;20100;-82
2023/06/27 14:17:49;;;;;;;6.97;1.30;;;;;;;;;;5038213;28;20041;-83
2023/06/27 14:20:16;;;;;;;9.20;1.27;;;;;;;;;;5046533;28;20044;-84
2023/06/27 14:22:43;;;;;;;2.58;1.17;;;;;;;;;;5056403;28;20101;-84
2023/06/27 14:25:10;;;;;;;4.70;1.42;;;;;;;;;;5021911;28;20049;-81
2023/06/27 14:27:39;;;;;;;4.30;1.42;;;;;;;;;;5057875;28;20044;-83
2023/06/27 14:30:06;;;;;;;5.47;1.30;;;;;;;;;;5045055;28;20049;-84
2023/06/27 14:32:33;;;;;;;6.47;1.15;;;;;;;;;;5069738;28;20037;-85
2023/06/27 14:34:59;;;;;;;3.63;1.25;;;;;;;;;;5029225;28;20103;-81
2023/06/27 14:37:26;;;;;;;4.28;1.08;;;;;;;;;;5060166;28;20053;-83
2023/06/27 14:39:53;;;;;;;4.05;1.00;;;;;;;;;;5024394;28;20531;-83
2023/06/27 14:42:20;;;;;;;3.35;1.40;;;;;;;;;;5041575;28;20128;-82
2023/06/27 14:44:46;;;;;;;4.75;1.20;;;;;;;;;;5040813;28;20069;-83
2023/06/27 14:47:13;;;;;;;7.55;1.40;;;;;;;;;;5004642;28;20050;-83